createdAt,value
2019-03-25T00:01:30.081Z,14.70
2019-03-25T00:03:57.142Z,15.00
2019-03-25T00:06:24.276Z,12.45
2019-03-25T00:09:04.601Z,16.25
2019-03-25T00:11:21.560Z,21.70
2019-03-25T00:13:48.749Z,19.80
2019-03-25T00:16:15.832Z,12.15
2019-03-25T00:18:42.897Z,14.05
2019-03-25T00:21:09.962Z,17.02
2019-03-25T00:23:37.111Z,17.52
2019-03-25T00:26:04.400Z,15.58
2019-03-25T00:28:33.506Z,13.62
2019-03-25T00:31:00.569Z,14.70
2019-03-25T00:33:27.586Z,18.25
2019-03-25T00:35:54.558Z,11.35
2019-03-25T00:38:21.648Z,22.98
2019-03-25T00:40:48.673Z,17.48
2019-03-25T00:43:15.836Z,15.60
2019-03-25T00:45:42.843Z,15.65
2019-03-25T00:48:10.352Z,10.60
2019-03-25T00:50:37.397Z,14.95
2019-03-25T00:53:04.459Z,14.78
2019-03-25T00:55:31.455Z,17.20
2019-03-25T00:57:58.998Z,10.98
2019-03-25T01:00:26.147Z,7.42
2019-03-25T01:02:53.506Z,15.70
2019-03-25T01:05:20.530Z,11.05
2019-03-25T01:07:47.667Z,12.78
2019-03-25T01:10:14.977Z,11.20
2019-03-25T01:12:42.121Z,11.57
2019-03-25T01:15:09.805Z,9.08
2019-03-25T01:17:36.881Z,13.38
2019-03-25T01:20:05.715Z,10.75
2019-03-25T01:22:32.881Z,8.13
2019-03-25T01:25:01.995Z,9.05
2019-03-25T01:27:29.002Z,14.85
2019-03-25T01:29:56.185Z,11.25
2019-03-25T01:32:23.341Z,23.02
2019-03-25T01:34:50.500Z,15.65
2019-03-25T01:37:17.645Z,9.90
2019-03-25T01:39:44.790Z,12.18
2019-03-25T01:42:11.842Z,14.25
2019-03-25T01:44:38.902Z,14.55
2019-03-25T01:47:05.936Z,12.33
2019-03-25T01:49:33.309Z,19.87
2019-03-25T01:52:00.741Z,15.45
2019-03-25T01:54:27.765Z,9.20
2019-03-25T01:56:54.925Z,17.92
2019-03-25T01:59:21.964Z,15.58
2019-03-25T02:01:50.147Z,15.53
2019-03-25T02:04:17.228Z,21.57
2019-03-25T02:06:44.510Z,13.58
2019-03-25T02:09:11.692Z,13.98
2019-03-25T02:11:38.753Z,21.33
2019-03-25T02:14:05.870Z,12.60
2019-03-25T02:16:35.622Z,17.50
2019-03-25T02:19:01.886Z,15.95
2019-03-25T02:21:29.061Z,10.95
2019-03-25T02:23:56.132Z,15.75
2019-03-25T02:26:23.302Z,14.20
2019-03-25T02:29:00.962Z,11.55
2019-03-25T02:31:28.062Z,12.33
2019-03-25T02:33:55.133Z,19.10
2019-03-25T02:36:22.152Z,13.15
2019-03-25T02:38:49.636Z,17.48
2019-03-25T02:41:19.292Z,15.08
2019-03-25T02:43:46.474Z,11.73
2019-03-25T02:46:13.831Z,20.20
2019-03-25T02:48:40.927Z,15.10
2019-03-25T02:51:07.937Z,17.98
2019-03-25T02:53:35.095Z,19.55
2019-03-25T02:56:02.524Z,21.97
2019-03-25T02:58:30.119Z,11.40
2019-03-25T03:00:57.142Z,18.37
2019-03-25T03:03:24.186Z,18.40
2019-03-25T03:05:51.159Z,23.27
2019-03-25T03:08:18.226Z,14.53
2019-03-25T03:10:45.198Z,14.90
2019-03-25T03:13:12.337Z,18.82
2019-03-25T03:15:39.353Z,8.98
2019-03-25T03:18:06.417Z,15.95
2019-03-25T03:20:33.481Z,15.55
2019-03-25T03:23:03.126Z,16.17
2019-03-25T03:25:31.182Z,13.70
2019-03-25T03:28:00.460Z,9.03
2019-03-25T03:30:27.514Z,14.73
2019-03-25T03:32:54.543Z,12.88
2019-03-25T03:35:21.674Z,21.52
2019-03-25T03:37:48.697Z,10.72
2019-03-25T03:40:15.839Z,19.65
2019-03-25T03:42:43.078Z,23.45
2019-03-25T03:45:12.885Z,12.63
2019-03-25T03:47:39.901Z,13.13
2019-03-25T03:50:07.317Z,13.48
2019-03-25T03:52:34.975Z,20.27
2019-03-25T03:55:03.109Z,16.57
2019-03-25T03:57:30.194Z,17.73
2019-03-25T03:59:57.327Z,10.68
2019-03-25T04:02:24.315Z,15.63
2019-03-25T04:04:51.505Z,27.17
2019-03-25T04:07:19.088Z,16.05
2019-03-25T04:09:47.276Z,19.32
2019-03-25T04:12:14.537Z,21.12
2019-03-25T04:14:43.747Z,19.57
2019-03-25T04:17:10.886Z,15.70
2019-03-25T04:19:38.951Z,15.13
2019-03-25T04:22:06.098Z,18.25
2019-03-25T04:24:33.274Z,20.02
2019-03-25T04:27:00.410Z,16.97
2019-03-25T04:29:27.453Z,20.35
2019-03-25T04:31:54.609Z,17.00
2019-03-25T04:34:21.816Z,19.73
2019-03-25T04:36:48.828Z,14.78
2019-03-25T04:39:15.984Z,14.60
2019-03-25T04:41:42.965Z,16.37
2019-03-25T04:44:10.070Z,15.93
2019-03-25T04:46:37.865Z,15.93
2019-03-25T04:49:04.996Z,21.20
2019-03-25T04:51:31.965Z,11.78
2019-03-25T04:54:00.854Z,15.63
2019-03-25T04:56:38.761Z,15.48
2019-03-25T04:58:56.667Z,25.23
2019-03-25T05:01:23.677Z,25.88
2019-03-25T05:03:50.676Z,22.00
2019-03-25T05:06:17.695Z,13.62
2019-03-25T05:08:44.787Z,6.67
2019-03-25T05:11:11.782Z,9.95
2019-03-25T05:13:38.997Z,15.60
2019-03-25T05:16:06.379Z,18.67
2019-03-25T05:18:33.516Z,16.40
2019-03-25T05:21:00.546Z,11.38
2019-03-25T05:23:29.065Z,21.85
2019-03-25T05:25:56.068Z,17.77
2019-03-25T05:28:23.184Z,20.48
2019-03-25T05:30:50.237Z,14.43
2019-03-25T05:33:17.403Z,14.95
2019-03-25T05:35:46.844Z,10.68
2019-03-25T05:38:14.140Z,14.65
2019-03-25T05:40:41.357Z,12.85
2019-03-25T05:43:08.462Z,13.45
2019-03-25T05:45:35.500Z,18.25
2019-03-25T05:48:02.556Z,17.62
2019-03-25T05:50:29.627Z,13.13
2019-03-25T05:52:56.729Z,18.00
2019-03-25T05:55:23.785Z,13.88
2019-03-25T05:57:50.877Z,10.95
2019-03-25T06:00:19.793Z,23.38
2019-03-25T06:02:46.848Z,14.83
2019-03-25T06:05:13.889Z,17.57
2019-03-25T06:07:40.872Z,17.73
2019-03-25T06:10:08.202Z,13.38
2019-03-25T06:12:35.310Z,23.47
2019-03-25T06:15:04.296Z,11.65
2019-03-25T06:17:32.733Z,15.38
2019-03-25T06:19:59.792Z,12.25
2019-03-25T06:22:26.766Z,10.58
2019-03-25T06:24:53.821Z,19.90
2019-03-25T06:27:20.876Z,9.55
2019-03-25T06:29:47.868Z,10.30
2019-03-25T06:32:15.011Z,11.48
2019-03-25T06:34:42.088Z,17.17
2019-03-25T06:37:09.101Z,14.58
2019-03-25T06:39:36.112Z,12.23
2019-03-25T06:42:03.197Z,10.20
2019-03-25T06:44:30.183Z,12.28
2019-03-25T06:46:57.300Z,13.18
2019-03-25T06:49:24.397Z,14.25
2019-03-25T06:51:51.724Z,12.85
2019-03-25T06:54:18.714Z,19.60
2019-03-25T06:56:45.798Z,10.80
2019-03-25T06:59:12.757Z,15.13
2019-03-25T07:01:40.943Z,19.92
2019-03-25T07:04:07.974Z,14.18
2019-03-25T07:06:35.509Z,8.75
2019-03-25T07:09:04.682Z,13.90
2019-03-25T07:11:31.737Z,12.33
2019-03-25T07:13:58.871Z,12.88
2019-03-25T07:16:26.765Z,15.43
2019-03-25T07:18:53.819Z,11.20
2019-03-25T07:21:20.934Z,14.45
2019-03-25T07:23:47.964Z,13.20
2019-03-25T07:26:15.115Z,17.82
2019-03-25T07:28:42.080Z,14.38
2019-03-25T07:31:09.529Z,14.20
2019-03-25T07:33:36.540Z,19.40
2019-03-25T07:36:05.944Z,15.98
2019-03-25T07:38:33.102Z,15.35
2019-03-25T07:41:00.140Z,12.88
2019-03-25T07:43:27.181Z,14.55
2019-03-25T07:45:54.216Z,17.90
2019-03-25T07:48:21.261Z,16.27
2019-03-25T07:50:48.306Z,8.78
2019-03-25T07:53:15.457Z,12.03
2019-03-25T07:55:55.726Z,16.95
2019-03-25T07:58:22.887Z,14.30
2019-03-25T08:00:50.178Z,16.87
2019-03-25T08:03:18.304Z,12.53
2019-03-25T08:05:45.400Z,21.87
2019-03-25T08:08:12.441Z,17.75
2019-03-25T08:10:39.460Z,28.92
2019-03-25T08:13:06.533Z,21.30
2019-03-25T08:15:33.650Z,12.30
2019-03-25T08:18:00.911Z,14.13
2019-03-25T08:20:27.921Z,12.15
2019-03-25T08:22:55.061Z,16.77
2019-03-25T08:25:22.113Z,9.55
2019-03-25T08:27:59.495Z,16.05
2019-03-25T08:30:18.502Z,19.42
2019-03-25T08:32:45.621Z,17.80
2019-03-25T08:35:12.657Z,11.60
2019-03-25T08:37:39.696Z,8.18
2019-03-25T08:40:07.625Z,15.68
2019-03-25T08:42:34.790Z,15.53
2019-03-25T08:45:01.809Z,21.75
2019-03-25T08:47:28.965Z,14.85
2019-03-25T08:49:56.065Z,20.68
2019-03-25T08:52:24.124Z,13.20
2019-03-25T08:54:51.136Z,9.60
2019-03-25T08:57:18.197Z,14.53
2019-03-25T08:59:45.236Z,15.78
2019-03-25T09:02:12.357Z,9.13
2019-03-25T09:04:39.537Z,7.37
2019-03-25T09:07:06.719Z,9.85
2019-03-25T09:09:36.378Z,13.88
2019-03-25T09:12:03.618Z,9.28
2019-03-25T09:14:30.721Z,9.48
2019-03-25T09:17:00.530Z,13.15
2019-03-25T09:19:26.861Z,14.58
2019-03-25T09:21:54.867Z,10.95
2019-03-25T09:24:21.922Z,10.93
2019-03-25T09:26:48.965Z,8.53
2019-03-25T09:29:16.005Z,9.20
2019-03-25T09:31:43.048Z,9.05
2019-03-25T09:34:10.097Z,9.20
2019-03-25T09:36:37.113Z,11.30
2019-03-25T09:39:06.481Z,10.03
2019-03-25T09:41:33.465Z,12.00
2019-03-25T09:44:00.556Z,8.83
2019-03-25T09:46:27.581Z,6.20
2019-03-25T09:48:54.744Z,8.05
2019-03-25T09:51:21.755Z,8.28
2019-03-25T09:53:48.822Z,11.53
2019-03-25T09:56:16.981Z,11.97
2019-03-25T09:58:44.968Z,10.88
2019-03-25T10:01:12.138Z,7.92
2019-03-25T10:03:39.375Z,13.55
2019-03-25T10:06:06.658Z,8.08
2019-03-25T10:08:33.907Z,8.50
2019-03-25T10:11:01.005Z,11.15
2019-03-25T10:13:28.134Z,10.15
2019-03-25T10:15:55.330Z,8.78
2019-03-25T10:18:22.537Z,11.65
2019-03-25T10:20:49.649Z,7.20
2019-03-25T10:23:17.593Z,10.80
2019-03-25T10:25:44.692Z,6.40
2019-03-25T10:28:11.789Z,5.53
2019-03-25T10:30:38.830Z,10.90
2019-03-25T10:33:06.720Z,8.58
2019-03-25T10:35:33.965Z,8.73
2019-03-25T10:38:01.202Z,6.97
2019-03-25T10:40:29.443Z,9.33
2019-03-25T10:42:57.457Z,7.42
2019-03-25T10:45:24.709Z,8.38
2019-03-25T10:47:51.893Z,9.00
2019-03-25T10:50:18.991Z,13.48
2019-03-25T10:52:46.217Z,5.60
2019-03-25T10:55:13.451Z,5.83
2019-03-25T10:57:40.638Z,8.05
2019-03-25T11:00:10.661Z,9.15
2019-03-25T11:02:37.869Z,7.72
2019-03-25T11:05:05.868Z,10.80
2019-03-25T11:07:33.040Z,7.78
2019-03-25T11:10:00.328Z,7.55
2019-03-25T11:12:27.410Z,4.80
2019-03-25T11:14:54.440Z,6.65
2019-03-25T11:17:21.490Z,9.60
2019-03-25T11:19:48.452Z,9.03
2019-03-25T11:22:15.482Z,8.83
2019-03-25T11:24:42.514Z,11.08
2019-03-25T11:27:09.548Z,4.33
2019-03-25T11:29:36.589Z,6.83
2019-03-25T11:32:03.674Z,8.98
2019-03-25T11:34:30.709Z,8.30
2019-03-25T11:36:57.753Z,6.33
2019-03-25T11:39:24.766Z,6.33
2019-03-25T11:41:51.932Z,7.53
2019-03-25T11:44:18.946Z,6.40
2019-03-25T11:46:46.092Z,6.90
2019-03-25T11:49:13.139Z,8.80
2019-03-25T11:51:42.115Z,6.55
2019-03-25T11:54:09.159Z,5.12
2019-03-25T11:56:36.302Z,10.35
2019-03-25T11:59:03.436Z,6.95
2019-03-25T12:01:30.613Z,4.42
2019-03-25T12:03:57.636Z,4.10
2019-03-25T12:06:24.694Z,6.60
2019-03-25T12:08:51.726Z,4.33
2019-03-25T12:11:18.881Z,4.08
2019-03-25T12:13:45.907Z,6.50
2019-03-25T12:16:15.320Z,6.42
2019-03-25T12:18:42.341Z,3.85
2019-03-25T12:21:09.322Z,5.42
2019-03-25T12:23:36.333Z,5.42
2019-03-25T12:26:03.398Z,8.50
2019-03-25T12:28:30.401Z,4.08
2019-03-25T12:30:57.533Z,6.92
2019-03-25T12:33:25.494Z,3.40
2019-03-25T12:35:52.631Z,5.90
2019-03-25T12:38:19.797Z,3.25
2019-03-25T12:40:46.917Z,7.90
2019-03-25T12:43:13.965Z,6.78
2019-03-25T12:45:41.233Z,7.70
2019-03-25T12:48:08.449Z,3.10
2019-03-25T12:50:35.608Z,8.20
2019-03-25T12:53:02.645Z,8.58
2019-03-25T12:55:29.665Z,9.18
2019-03-25T12:57:56.830Z,8.63
2019-03-25T13:00:35.238Z,9.10
2019-03-25T13:03:03.080Z,6.25
2019-03-25T13:05:30.233Z,5.35
2019-03-25T13:08:00.122Z,6.62
2019-03-25T13:10:27.241Z,3.55
2019-03-25T13:12:54.399Z,5.10
2019-03-25T13:15:21.457Z,3.50
2019-03-25T13:17:48.607Z,6.58
2019-03-25T13:20:16.713Z,6.37
2019-03-25T13:22:43.770Z,4.55
2019-03-25T13:25:10.818Z,5.58
2019-03-25T13:27:37.957Z,4.12
2019-03-25T13:30:07.184Z,4.03
2019-03-25T13:32:34.329Z,5.45
2019-03-25T13:35:01.344Z,4.15
2019-03-25T13:37:28.616Z,6.37
2019-03-25T13:39:55.637Z,4.05
2019-03-25T13:42:22.772Z,4.95
2019-03-25T13:44:49.776Z,1.70
2019-03-25T13:47:16.939Z,2.77
2019-03-25T13:49:43.937Z,1.60
2019-03-25T13:52:11.081Z,4.40
2019-03-25T13:54:38.141Z,3.55
2019-03-25T13:57:05.324Z,3.45
2019-03-25T13:59:32.341Z,2.42
2019-03-25T14:01:59.485Z,4.50
2019-03-25T14:04:26.512Z,3.85
2019-03-25T14:06:53.585Z,1.15
2019-03-25T14:09:21.611Z,2.40
2019-03-25T14:11:48.689Z,2.65
2019-03-25T14:14:15.704Z,3.30
2019-03-25T14:16:42.820Z,3.65
2019-03-25T14:19:09.863Z,3.50
2019-03-25T14:21:36.898Z,8.20
2019-03-25T14:24:04.114Z,4.42
2019-03-25T14:26:31.130Z,5.65
2019-03-25T14:28:58.133Z,6.22
2019-03-25T14:31:25.226Z,6.00
2019-03-25T14:33:52.230Z,4.30
2019-03-25T14:36:19.309Z,3.62
2019-03-25T14:38:46.270Z,3.05
2019-03-25T14:41:13.461Z,7.15
2019-03-25T14:43:40.470Z,4.15
2019-03-25T14:46:07.575Z,3.87
2019-03-25T14:48:35.532Z,5.65
2019-03-25T14:51:02.680Z,5.15
2019-03-25T14:53:29.638Z,4.58
2019-03-25T14:55:56.805Z,4.42
2019-03-25T14:58:23.957Z,5.12
2019-03-25T15:00:51.081Z,6.70
2019-03-25T15:03:19.040Z,5.80
2019-03-25T15:05:46.161Z,5.22
2019-03-25T15:08:13.353Z,4.10
2019-03-25T15:10:40.386Z,5.30
2019-03-25T15:13:07.481Z,3.85
2019-03-25T15:15:35.386Z,7.08
2019-03-25T15:18:02.497Z,6.20
2019-03-25T15:20:29.497Z,3.15
2019-03-25T15:22:56.628Z,5.70
2019-03-25T15:25:23.612Z,2.42
2019-03-25T15:27:50.678Z,6.05
2019-03-25T15:30:17.876Z,4.03
2019-03-25T15:32:44.921Z,5.65
2019-03-25T15:35:12.229Z,4.83
2019-03-25T15:37:39.266Z,6.00
2019-03-25T15:40:08.832Z,3.90
2019-03-25T15:42:35.897Z,4.95
2019-03-25T15:45:04.901Z,5.33
2019-03-25T15:47:32.024Z,3.08
2019-03-25T15:49:59.077Z,4.97
2019-03-25T15:52:26.164Z,5.03
2019-03-25T15:54:53.150Z,6.42
2019-03-25T15:57:20.250Z,3.92
2019-03-25T15:59:47.234Z,5.78
2019-03-25T16:02:14.374Z,3.85
2019-03-25T16:04:42.184Z,8.75
2019-03-25T16:07:09.373Z,8.43
2019-03-25T16:09:36.349Z,8.48
2019-03-25T16:12:05.005Z,4.70
2019-03-25T16:14:32.218Z,3.17
2019-03-25T16:16:59.253Z,7.47
2019-03-25T16:19:26.245Z,6.28
2019-03-25T16:21:53.279Z,3.85
2019-03-25T16:24:21.116Z,7.50
2019-03-25T16:26:48.185Z,4.75
2019-03-25T16:29:15.227Z,5.62
2019-03-25T16:31:42.290Z,7.37
2019-03-25T16:34:09.257Z,7.85
2019-03-25T16:36:36.413Z,5.75
2019-03-25T16:39:06.177Z,4.12
2019-03-25T16:41:35.020Z,3.92
2019-03-25T16:44:02.021Z,2.37
2019-03-25T16:46:29.041Z,4.53
2019-03-25T16:48:56.064Z,2.80
2019-03-25T16:51:23.125Z,7.58
2019-03-25T16:53:50.128Z,7.70
2019-03-25T16:56:17.184Z,7.17
2019-03-25T16:58:44.208Z,5.85
2019-03-25T17:01:11.353Z,5.20
2019-03-25T17:03:38.377Z,2.75
2019-03-25T17:06:05.545Z,5.72
2019-03-25T17:08:32.679Z,4.40
2019-03-25T17:10:59.722Z,6.15
2019-03-25T17:13:26.745Z,5.60
2019-03-25T17:15:53.894Z,4.30
2019-03-25T17:18:20.960Z,5.37
2019-03-25T17:20:47.994Z,3.92
2019-03-25T17:23:14.984Z,4.62
2019-03-25T17:25:52.523Z,6.00
2019-03-25T17:28:11.034Z,8.58
2019-03-25T17:30:38.086Z,4.95
2019-03-25T17:33:05.118Z,7.85
2019-03-25T17:35:32.114Z,7.95
2019-03-25T17:37:59.173Z,7.42
2019-03-25T17:40:26.339Z,5.50
2019-03-25T17:42:53.430Z,4.25
2019-03-25T17:45:21.496Z,8.95
2019-03-25T17:47:48.596Z,5.65
2019-03-25T17:50:15.890Z,3.12
2019-03-25T17:52:42.972Z,5.35
2019-03-25T17:55:25.220Z,4.17
2019-03-25T17:57:54.708Z,8.88
2019-03-25T18:00:52.253Z,3.67
2019-03-25T18:03:19.554Z,10.72
2019-03-25T18:05:46.877Z,8.50
2019-03-25T18:08:14.133Z,8.50
2019-03-25T18:10:41.337Z,5.10
2019-03-25T18:13:09.609Z,9.90
2019-03-25T18:15:36.657Z,9.35
2019-03-25T18:18:03.646Z,3.95
2019-03-25T18:20:30.769Z,8.88
2019-03-25T18:22:57.854Z,6.92
2019-03-25T18:25:24.931Z,5.58
2019-03-25T18:27:52.051Z,5.85
2019-03-25T18:30:25.670Z,9.00
2019-03-25T18:32:52.689Z,11.05
2019-03-25T18:35:22.900Z,9.68
2019-03-25T18:37:50.285Z,11.75
2019-03-25T18:40:17.809Z,11.05
2019-03-25T18:42:45.025Z,7.42
2019-03-25T18:45:12.710Z,7.42
2019-03-25T18:47:39.786Z,3.42
2019-03-25T18:50:07.841Z,8.40
2019-03-25T18:52:34.880Z,8.05
2019-03-25T18:55:02.815Z,10.70
2019-03-25T18:57:31.397Z,11.35
2019-03-25T18:59:59.700Z,7.47
2019-03-25T19:02:26.958Z,7.95
2019-03-25T19:04:54.135Z,7.33
2019-03-25T19:07:23.352Z,4.37
2019-03-25T19:09:51.353Z,11.12
2019-03-25T19:12:18.528Z,7.08
2019-03-25T19:14:45.877Z,7.53
2019-03-25T19:17:17.277Z,9.53
2019-03-25T19:19:44.793Z,6.55
2019-03-25T19:22:13.389Z,11.63
2019-03-25T19:24:45.740Z,8.48
2019-03-25T19:27:17.392Z,6.22
2019-03-25T19:29:44.221Z,10.48
2019-03-25T19:32:11.765Z,5.42
2019-03-25T19:34:38.894Z,9.08
2019-03-25T19:37:06.512Z,7.72
2019-03-25T19:39:33.537Z,7.75
2019-03-25T19:42:02.675Z,7.70
2019-03-25T19:44:30.260Z,9.15
2019-03-25T19:46:57.455Z,3.80
2019-03-25T19:49:24.477Z,7.45
2019-03-25T19:51:53.513Z,9.38
2019-03-25T19:54:20.605Z,8.05
2019-03-25T19:56:48.040Z,6.20
2019-03-25T19:59:15.679Z,5.83
2019-03-25T20:01:42.697Z,7.83
2019-03-25T20:04:10.215Z,6.55
2019-03-25T20:06:37.493Z,7.45
2019-03-25T20:09:06.361Z,8.53
2019-03-25T20:11:33.869Z,13.65
2019-03-25T20:14:00.933Z,3.98
2019-03-25T20:16:28.835Z,6.78
2019-03-25T20:18:56.028Z,9.70
2019-03-25T20:21:25.302Z,6.08
2019-03-25T20:23:52.599Z,7.90
2019-03-25T20:26:20.195Z,7.17
2019-03-25T20:28:47.207Z,6.60
2019-03-25T20:31:14.617Z,8.00
2019-03-25T20:33:44.155Z,4.45
2019-03-25T20:36:11.282Z,7.03
2019-03-25T20:38:38.450Z,6.22
2019-03-25T20:41:05.784Z,9.08
2019-03-25T20:43:32.813Z,8.48
2019-03-25T20:45:59.849Z,8.90
2019-03-25T20:48:26.889Z,5.80
2019-03-25T20:50:54.050Z,9.13
2019-03-25T20:53:21.147Z,6.55
2019-03-25T20:55:48.202Z,7.28
2019-03-25T20:58:15.222Z,10.90
2019-03-25T21:00:52.925Z,10.15
2019-03-25T21:03:19.961Z,8.40
2019-03-25T21:05:47.005Z,6.08
2019-03-25T21:08:15.372Z,9.53
2019-03-25T21:10:43.416Z,10.43
2019-03-25T21:13:11.478Z,11.10
2019-03-25T21:15:38.468Z,9.73
2019-03-25T21:18:05.504Z,11.15
2019-03-25T21:20:32.544Z,9.38
2019-03-25T21:22:59.673Z,9.60
2019-03-25T21:25:26.611Z,10.03
2019-03-25T21:27:53.618Z,12.03
2019-03-25T21:30:21.003Z,11.57
2019-03-25T21:32:57.618Z,9.53
2019-03-25T21:35:16.793Z,9.58
2019-03-25T21:37:44.179Z,9.60
2019-03-25T21:40:11.540Z,7.15
2019-03-25T21:42:38.775Z,9.88
2019-03-25T21:45:09.296Z,14.60
2019-03-25T21:47:36.641Z,10.63
2019-03-25T21:50:04.950Z,10.43
2019-03-25T21:52:31.943Z,13.62
2019-03-25T21:54:58.941Z,8.95
2019-03-25T21:57:26.066Z,7.28
2019-03-25T21:59:53.045Z,12.20
2019-03-25T22:02:20.050Z,12.30
2019-03-25T22:04:47.669Z,7.72
2019-03-25T22:07:14.681Z,13.43
2019-03-25T22:09:41.693Z,9.28
2019-03-25T22:12:08.937Z,5.72
2019-03-25T22:14:35.990Z,8.65
2019-03-25T22:17:03.082Z,6.08
2019-03-25T22:19:30.097Z,9.20
2019-03-25T22:21:57.231Z,3.72
2019-03-25T22:24:24.436Z,6.90
2019-03-25T22:26:51.581Z,7.37
2019-03-25T22:29:18.602Z,9.18
2019-03-25T22:31:45.651Z,9.80
2019-03-25T22:34:12.717Z,10.60
2019-03-25T22:36:39.767Z,7.67
2019-03-25T22:39:06.893Z,7.55
2019-03-25T22:41:35.127Z,6.40
2019-03-25T22:44:02.312Z,8.45
2019-03-25T22:46:29.388Z,3.30
2019-03-25T22:48:56.444Z,4.00
2019-03-25T22:51:23.617Z,3.15
2019-03-25T22:53:51.616Z,7.55
2019-03-25T22:56:18.769Z,4.92
2019-03-25T22:58:45.825Z,5.47
2019-03-25T23:01:12.968Z,8.33
2019-03-25T23:03:41.386Z,2.77
2019-03-25T23:06:08.551Z,4.28
2019-03-25T23:08:36.532Z,5.62
2019-03-25T23:11:03.632Z,2.85
2019-03-25T23:13:30.683Z,8.75
2019-03-25T23:15:57.726Z,5.30
2019-03-25T23:18:24.753Z,6.67
2019-03-25T23:20:51.905Z,6.08
2019-03-25T23:23:18.936Z,8.75
2019-03-25T23:25:46.035Z,10.82
2019-03-25T23:28:13.065Z,7.33
2019-03-25T23:30:40.185Z,3.35
2019-03-25T23:33:07.190Z,7.95
2019-03-25T23:35:34.368Z,5.12
2019-03-25T23:38:01.403Z,6.15
2019-03-25T23:40:28.437Z,4.47
2019-03-25T23:42:55.417Z,3.60
2019-03-25T23:45:22.501Z,2.45
2019-03-25T23:47:49.563Z,3.50
2019-03-25T23:50:16.607Z,3.02
2019-03-25T23:52:43.725Z,3.92
2019-03-25T23:55:11.090Z,5.90
2019-03-25T23:57:40.371Z,7.10
